sensor_id;sensor_type;location;lat;lon;timestamp;P1;durP1;ratioP1;P2;durP2;ratioP2
54959;SDS011;40860;51.710;8.736;2023-05-14T00:02:20;7.45;;;5.38;;
54959;SDS011;40860;51.710;8.736;2023-05-14T00:06:23;7.72;;;5.18;;
54959;SDS011;40860;51.710;8.736;2023-05-14T00:10:26;6.28;;;5.20;;
54959;SDS011;40860;51.710;8.736;2023-05-14T00:14:29;5.60;;;5.10;;
54959;SDS011;40860;51.710;8.736;2023-05-14T00:18:33;6.15;;;5.55;;
54959;SDS011;40860;51.710;8.736;2023-05-14T00:22:36;6.68;;;5.30;;
54959;SDS011;40860;51.710;8.736;2023-05-14T00:26:39;8.05;;;5.38;;
54959;SDS011;40860;51.710;8.736;2023-05-14T00:30:43;6.05;;;5.53;;
54959;SDS011;40860;51.710;8.736;2023-05-14T00:34:47;6.30;;;5.57;;
54959;SDS011;40860;51.710;8.736;2023-05-14T00:38:50;5.68;;;5.13;;
54959;SDS011;40860;51.710;8.736;2023-05-14T00:42:53;6.25;;;5.65;;
54959;SDS011;40860;51.710;8.736;2023-05-14T00:46:56;5.70;;;5.20;;
54959;SDS011;40860;51.710;8.736;2023-05-14T00:51:02;6.45;;;5.57;;
54959;SDS011;40860;51.710;8.736;2023-05-14T00:55:05;5.95;;;5.05;;
54959;SDS011;40860;51.710;8.736;2023-05-14T00:59:09;6.15;;;5.65;;
54959;SDS011;40860;51.710;8.736;2023-05-14T01:03:13;6.22;;;5.63;;
54959;SDS011;40860;51.710;8.736;2023-05-14T01:07:19;7.63;;;6.03;;
54959;SDS011;40860;51.710;8.736;2023-05-14T01:11:32;6.65;;;5.95;;
54959;SDS011;40860;51.710;8.736;2023-05-14T01:15:41;6.03;;;5.53;;
54959;SDS011;40860;51.710;8.736;2023-05-14T01:19:46;7.68;;;5.70;;
54959;SDS011;40860;51.710;8.736;2023-05-14T01:23:54;6.95;;;5.82;;
54959;SDS011;40860;51.710;8.736;2023-05-14T01:28:00;7.95;;;5.43;;
54959;SDS011;40860;51.710;8.736;2023-05-14T01:32:08;6.53;;;5.97;;
54959;SDS011;40860;51.710;8.736;2023-05-14T01:36:13;5.90;;;5.38;;
54959;SDS011;40860;51.710;8.736;2023-05-14T01:40:20;6.50;;;5.90;;
54959;SDS011;40860;51.710;8.736;2023-05-14T01:44:27;9.85;;;6.18;;
54959;SDS011;40860;51.710;8.736;2023-05-14T01:48:31;6.18;;;5.68;;
54959;SDS011;40860;51.710;8.736;2023-05-14T01:52:34;6.47;;;5.45;;
54959;SDS011;40860;51.710;8.736;2023-05-14T01:56:39;6.25;;;5.65;;
54959;SDS011;40860;51.710;8.736;2023-05-14T02:00:42;6.00;;;5.30;;
54959;SDS011;40860;51.710;8.736;2023-05-14T02:04:45;7.00;;;5.95;;
54959;SDS011;40860;51.710;8.736;2023-05-14T02:08:51;7.70;;;5.60;;
54959;SDS011;40860;51.710;8.736;2023-05-14T02:12:55;6.50;;;5.90;;
54959;SDS011;40860;51.710;8.736;2023-05-14T02:16:58;8.35;;;6.05;;
54959;SDS011;40860;51.710;8.736;2023-05-14T02:21:01;6.70;;;5.97;;
54959;SDS011;40860;51.710;8.736;2023-05-14T02:25:04;6.85;;;6.25;;
54959;SDS011;40860;51.710;8.736;2023-05-14T02:29:09;7.07;;;6.38;;
54959;SDS011;40860;51.710;8.736;2023-05-14T02:33:12;7.07;;;6.47;;
54959;SDS011;40860;51.710;8.736;2023-05-14T02:37:15;7.93;;;6.90;;
54959;SDS011;40860;51.710;8.736;2023-05-14T02:41:18;8.82;;;6.20;;
54959;SDS011;40860;51.710;8.736;2023-05-14T02:45:23;6.70;;;6.07;;
54959;SDS011;40860;51.710;8.736;2023-05-14T02:49:25;6.30;;;5.50;;
54959;SDS011;40860;51.710;8.736;2023-05-14T02:53:28;6.22;;;5.63;;
54959;SDS011;40860;51.710;8.736;2023-05-14T02:57:31;6.30;;;5.70;;
54959;SDS011;40860;51.710;8.736;2023-05-14T03:01:35;6.13;;;5.63;;
54959;SDS011;40860;51.710;8.736;2023-05-14T03:05:39;6.07;;;5.53;;
54959;SDS011;40860;51.710;8.736;2023-05-14T03:09:41;6.35;;;5.75;;
54959;SDS011;40860;51.710;8.736;2023-05-14T03:13:44;7.47;;;5.72;;
54959;SDS011;40860;51.710;8.736;2023-05-14T03:17:48;5.93;;;5.43;;
54959;SDS011;40860;51.710;8.736;2023-05-14T03:21:51;6.65;;;5.95;;
54959;SDS011;40860;51.710;8.736;2023-05-14T03:25:54;6.45;;;5.95;;
54959;SDS011;40860;51.710;8.736;2023-05-14T03:29:58;7.82;;;5.60;;
54959;SDS011;40860;51.710;8.736;2023-05-14T03:34:02;6.95;;;6.13;;
54959;SDS011;40860;51.710;8.736;2023-05-14T03:38:05;7.88;;;5.70;;
54959;SDS011;40860;51.710;8.736;2023-05-14T03:42:08;6.50;;;6.00;;
54959;SDS011;40860;51.710;8.736;2023-05-14T03:46:10;7.07;;;6.40;;
54959;SDS011;40860;51.710;8.736;2023-05-14T03:50:15;6.82;;;5.85;;
54959;SDS011;40860;51.710;8.736;2023-05-14T03:54:19;7.05;;;6.45;;
54959;SDS011;40860;51.710;8.736;2023-05-14T03:58:21;6.68;;;5.95;;
54959;SDS011;40860;51.710;8.736;2023-05-14T04:02:24;6.45;;;5.88;;
54959;SDS011;40860;51.710;8.736;2023-05-14T04:06:30;6.82;;;6.13;;
54959;SDS011;40860;51.710;8.736;2023-05-14T04:10:35;6.65;;;5.63;;
54959;SDS011;40860;51.710;8.736;2023-05-14T04:14:38;6.38;;;5.85;;
54959;SDS011;40860;51.710;8.736;2023-05-14T04:18:41;6.00;;;5.43;;
54959;SDS011;40860;51.710;8.736;2023-05-14T04:22:49;7.50;;;6.15;;
54959;SDS011;40860;51.710;8.736;2023-05-14T04:26:52;6.35;;;5.85;;
54959;SDS011;40860;51.710;8.736;2023-05-14T04:30:55;6.47;;;5.88;;
54959;SDS011;40860;51.710;8.736;2023-05-14T04:34:58;6.10;;;5.60;;
54959;SDS011;40860;51.710;8.736;2023-05-14T04:39:02;6.13;;;5.63;;
54959;SDS011;40860;51.710;8.736;2023-05-14T04:43:10;6.50;;;5.82;;
54959;SDS011;40860;51.710;8.736;2023-05-14T04:47:14;6.47;;;5.85;;
54959;SDS011;40860;51.710;8.736;2023-05-14T04:51:20;7.43;;;6.20;;
54959;SDS011;40860;51.710;8.736;2023-05-14T04:55:28;6.15;;;5.65;;
54959;SDS011;40860;51.710;8.736;2023-05-14T04:59:35;6.43;;;5.88;;
54959;SDS011;40860;51.710;8.736;2023-05-14T05:03:38;6.20;;;5.63;;
54959;SDS011;40860;51.710;8.736;2023-05-14T05:07:41;6.18;;;5.68;;
54959;SDS011;40860;51.710;8.736;2023-05-14T05:11:46;6.18;;;5.68;;
54959;SDS011;40860;51.710;8.736;2023-05-14T05:15:49;7.32;;;6.20;;
54959;SDS011;40860;51.710;8.736;2023-05-14T05:19:52;7.88;;;5.30;;
54959;SDS011;40860;51.710;8.736;2023-05-14T05:23:55;6.05;;;5.45;;
54959;SDS011;40860;51.710;8.736;2023-05-14T05:28:00;6.70;;;5.97;;
54959;SDS011;40860;51.710;8.736;2023-05-14T05:32:03;5.50;;;5.00;;
54959;SDS011;40860;51.710;8.736;2023-05-14T05:36:06;5.40;;;4.90;;
54959;SDS011;40860;51.710;8.736;2023-05-14T05:40:10;5.40;;;5.00;;
54959;SDS011;40860;51.710;8.736;2023-05-14T05:44:15;5.88;;;5.38;;
54959;SDS011;40860;51.710;8.736;2023-05-14T05:48:18;5.95;;;5.35;;
54959;SDS011;40860;51.710;8.736;2023-05-14T05:52:22;5.60;;;4.97;;
54959;SDS011;40860;51.710;8.736;2023-05-14T05:56:26;5.40;;;5.00;;
54959;SDS011;40860;51.710;8.736;2023-05-14T06:00:30;5.82;;;5.32;;
54959;SDS011;40860;51.710;8.736;2023-05-14T06:04:34;5.93;;;5.38;;
54959;SDS011;40860;51.710;8.736;2023-05-14T06:08:37;5.75;;;5.25;;
54959;SDS011;40860;51.710;8.736;2023-05-14T06:12:40;5.88;;;5.10;;
54959;SDS011;40860;51.710;8.736;2023-05-14T06:16:44;6.15;;;5.65;;
54959;SDS011;40860;51.710;8.736;2023-05-14T06:20:47;6.45;;;5.10;;
54959;SDS011;40860;51.710;8.736;2023-05-14T06:24:50;6.30;;;5.10;;
54959;SDS011;40860;51.710;8.736;2023-05-14T06:28:53;6.10;;;5.00;;
54959;SDS011;40860;51.710;8.736;2023-05-14T06:32:57;5.78;;;5.28;;
54959;SDS011;40860;51.710;8.736;2023-05-14T06:37:01;4.75;;;4.40;;
54959;SDS011;40860;51.710;8.736;2023-05-14T06:41:04;4.30;;;4.00;;
54959;SDS011;40860;51.710;8.736;2023-05-14T06:45:07;4.43;;;4.10;;
54959;SDS011;40860;51.710;8.736;2023-05-14T06:49:12;4.80;;;4.35;;
54959;SDS011;40860;51.710;8.736;2023-05-14T06:53:15;4.40;;;4.10;;
54959;SDS011;40860;51.710;8.736;2023-05-14T06:57:18;4.70;;;4.30;;
54959;SDS011;40860;51.710;8.736;2023-05-14T07:01:21;4.53;;;4.15;;
54959;SDS011;40860;51.710;8.736;2023-05-14T07:05:25;4.15;;;3.85;;
54959;SDS011;40860;51.710;8.736;2023-05-14T07:09:28;5.00;;;4.60;;
54959;SDS011;40860;51.710;8.736;2023-05-14T07:13:31;5.20;;;4.30;;
54959;SDS011;40860;51.710;8.736;2023-05-14T07:17:34;5.03;;;4.65;;
54959;SDS011;40860;51.710;8.736;2023-05-14T07:21:39;4.80;;;4.40;;
54959;SDS011;40860;51.710;8.736;2023-05-14T07:25:45;4.30;;;4.00;;
54959;SDS011;40860;51.710;8.736;2023-05-14T07:29:49;5.45;;;4.40;;
54959;SDS011;40860;51.710;8.736;2023-05-14T07:33:52;4.30;;;4.00;;
54959;SDS011;40860;51.710;8.736;2023-05-14T07:37:57;4.18;;;3.88;;
54959;SDS011;40860;51.710;8.736;2023-05-14T07:42:00;4.78;;;4.30;;
54959;SDS011;40860;51.710;8.736;2023-05-14T07:46:07;3.92;;;3.63;;
54959;SDS011;40860;51.710;8.736;2023-05-14T07:50:10;4.35;;;4.03;;
54959;SDS011;40860;51.710;8.736;2023-05-14T07:54:15;4.10;;;3.80;;
54959;SDS011;40860;51.710;8.736;2023-05-14T07:58:18;4.60;;;4.20;;
54959;SDS011;40860;51.710;8.736;2023-05-14T08:02:21;4.47;;;4.07;;
54959;SDS011;40860;51.710;8.736;2023-05-14T08:06:24;4.57;;;4.28;;
54959;SDS011;40860;51.710;8.736;2023-05-14T08:10:29;4.95;;;4.55;;
54959;SDS011;40860;51.710;8.736;2023-05-14T08:14:32;4.22;;;4.00;;
54959;SDS011;40860;51.710;8.736;2023-05-14T08:18:34;4.55;;;4.03;;
54959;SDS011;40860;51.710;8.736;2023-05-14T08:22:37;4.20;;;3.90;;
54959;SDS011;40860;51.710;8.736;2023-05-14T08:26:42;4.07;;;3.75;;
54959;SDS011;40860;51.710;8.736;2023-05-14T08:30:45;3.95;;;3.65;;
54959;SDS011;40860;51.710;8.736;2023-05-14T08:34:48;3.85;;;3.55;;
54959;SDS011;40860;51.710;8.736;2023-05-14T08:38:51;6.20;;;3.28;;
54959;SDS011;40860;51.710;8.736;2023-05-14T08:42:55;2.88;;;2.67;;
54959;SDS011;40860;51.710;8.736;2023-05-14T08:46:58;2.60;;;2.40;;
54959;SDS011;40860;51.710;8.736;2023-05-14T08:51:02;2.45;;;2.25;;
54959;SDS011;40860;51.710;8.736;2023-05-14T08:55:06;2.53;;;2.35;;
54959;SDS011;40860;51.710;8.736;2023-05-14T08:59:11;2.65;;;2.45;;
54959;SDS011;40860;51.710;8.736;2023-05-14T09:03:14;2.90;;;2.70;;
54959;SDS011;40860;51.710;8.736;2023-05-14T09:07:19;2.60;;;2.40;;
54959;SDS011;40860;51.710;8.736;2023-05-14T09:11:22;2.58;;;2.38;;
54959;SDS011;40860;51.710;8.736;2023-05-14T09:15:26;3.22;;;1.98;;
54959;SDS011;40860;51.710;8.736;2023-05-14T09:19:31;2.30;;;2.10;;
54959;SDS011;40860;51.710;8.736;2023-05-14T09:23:34;1.83;;;1.73;;
54959;SDS011;40860;51.710;8.736;2023-05-14T09:27:37;2.20;;;2.10;;
54959;SDS011;40860;51.710;8.736;2023-05-14T09:31:41;1.98;;;1.88;;
54959;SDS011;40860;51.710;8.736;2023-05-14T09:35:46;1.65;;;1.55;;
54959;SDS011;40860;51.710;8.736;2023-05-14T09:39:49;1.73;;;1.63;;
54959;SDS011;40860;51.710;8.736;2023-05-14T09:43:56;1.95;;;1.85;;
54959;SDS011;40860;51.710;8.736;2023-05-14T09:48:19;1.75;;;1.63;;
54959;SDS011;40860;51.710;8.736;2023-05-14T09:52:23;2.22;;;2.05;;
54959;SDS011;40860;51.710;8.736;2023-05-14T09:56:29;3.50;;;2.20;;
54959;SDS011;40860;51.710;8.736;2023-05-14T10:00:35;2.42;;;2.22;;
54959;SDS011;40860;51.710;8.736;2023-05-14T10:04:47;2.20;;;2.10;;
54959;SDS011;40860;51.710;8.736;2023-05-14T10:08:55;2.50;;;2.35;;
54959;SDS011;40860;51.710;8.736;2023-05-14T10:13:06;2.15;;;2.05;;
54959;SDS011;40860;51.710;8.736;2023-05-14T10:17:18;1.90;;;1.80;;
54959;SDS011;40860;51.710;8.736;2023-05-14T10:21:28;2.10;;;1.92;;
54959;SDS011;40860;51.710;8.736;2023-05-14T10:25:33;2.03;;;1.92;;
54959;SDS011;40860;51.710;8.736;2023-05-14T10:29:37;2.00;;;1.90;;
54959;SDS011;40860;51.710;8.736;2023-05-14T10:33:45;2.42;;;1.90;;
54959;SDS011;40860;51.710;8.736;2023-05-14T10:37:58;2.10;;;1.95;;
54959;SDS011;40860;51.710;8.736;2023-05-14T10:42:01;2.75;;;2.13;;
54959;SDS011;40860;51.710;8.736;2023-05-14T10:46:10;1.98;;;1.80;;
54959;SDS011;40860;51.710;8.736;2023-05-14T10:50:18;2.05;;;1.95;;
54959;SDS011;40860;51.710;8.736;2023-05-14T10:54:28;2.25;;;2.15;;
54959;SDS011;40860;51.710;8.736;2023-05-14T11:03:03;2.15;;;2.05;;
54959;SDS011;40860;51.710;8.736;2023-05-14T11:07:08;1.90;;;1.70;;
54959;SDS011;40860;51.710;8.736;2023-05-14T11:11:32;2.08;;;1.88;;
54959;SDS011;40860;51.710;8.736;2023-05-14T11:15:36;1.90;;;1.80;;
54959;SDS011;40860;51.710;8.736;2023-05-14T11:19:56;1.77;;;1.67;;
54959;SDS011;40860;51.710;8.736;2023-05-14T11:24:01;1.67;;;1.58;;
54959;SDS011;40860;51.710;8.736;2023-05-14T11:32:33;3.00;;;1.75;;
54959;SDS011;40860;51.710;8.736;2023-05-14T11:36:36;3.17;;;1.70;;
54959;SDS011;40860;51.710;8.736;2023-05-14T11:40:39;3.20;;;2.85;;
54959;SDS011;40860;51.710;8.736;2023-05-14T11:44:44;3.25;;;3.05;;
54959;SDS011;40860;51.710;8.736;2023-05-14T11:48:49;1.98;;;1.83;;
54959;SDS011;40860;51.710;8.736;2023-05-14T11:52:55;1.80;;;1.70;;
54959;SDS011;40860;51.710;8.736;2023-05-14T11:56:59;5.35;;;3.88;;
54959;SDS011;40860;51.710;8.736;2023-05-14T12:01:05;3.25;;;2.20;;
54959;SDS011;40860;51.710;8.736;2023-05-14T12:05:11;1.80;;;1.70;;
54959;SDS011;40860;51.710;8.736;2023-05-14T12:09:15;2.15;;;1.95;;
54959;SDS011;40860;51.710;8.736;2023-05-14T12:13:18;3.00;;;2.80;;
54959;SDS011;40860;51.710;8.736;2023-05-14T12:17:22;2.15;;;1.98;;
54959;SDS011;40860;51.710;8.736;2023-05-14T12:21:27;1.85;;;1.75;;
54959;SDS011;40860;51.710;8.736;2023-05-14T12:25:31;2.00;;;1.90;;
54959;SDS011;40860;51.710;8.736;2023-05-14T12:29:34;2.33;;;2.00;;
54959;SDS011;40860;51.710;8.736;2023-05-14T12:33:40;2.47;;;2.28;;
54959;SDS011;40860;51.710;8.736;2023-05-14T12:37:44;2.22;;;2.03;;
54959;SDS011;40860;51.710;8.736;2023-05-14T12:41:47;2.88;;;2.55;;
54959;SDS011;40860;51.710;8.736;2023-05-14T12:45:50;2.72;;;2.17;;
54959;SDS011;40860;51.710;8.736;2023-05-14T12:49:58;2.22;;;2.13;;
54959;SDS011;40860;51.710;8.736;2023-05-14T12:54:03;2.20;;;2.00;;
54959;SDS011;40860;51.710;8.736;2023-05-14T12:58:06;2.15;;;1.95;;
54959;SDS011;40860;51.710;8.736;2023-05-14T13:02:09;2.30;;;2.20;;
54959;SDS011;40860;51.710;8.736;2023-05-14T13:06:14;2.45;;;2.35;;
54959;SDS011;40860;51.710;8.736;2023-05-14T13:10:17;2.40;;;2.20;;
54959;SDS011;40860;51.710;8.736;2023-05-14T13:14:19;2.60;;;2.40;;
54959;SDS011;40860;51.710;8.736;2023-05-14T13:18:22;2.75;;;2.25;;
54959;SDS011;40860;51.710;8.736;2023-05-14T13:22:28;2.10;;;2.00;;
54959;SDS011;40860;51.710;8.736;2023-05-14T13:26:31;2.95;;;2.17;;
54959;SDS011;40860;51.710;8.736;2023-05-14T13:30:35;2.03;;;1.92;;
54959;SDS011;40860;51.710;8.736;2023-05-14T13:34:38;2.15;;;2.00;;
54959;SDS011;40860;51.710;8.736;2023-05-14T13:38:42;2.88;;;2.20;;
54959;SDS011;40860;51.710;8.736;2023-05-14T13:42:46;2.08;;;1.98;;
54959;SDS011;40860;51.710;8.736;2023-05-14T13:46:49;2.85;;;2.17;;
54959;SDS011;40860;51.710;8.736;2023-05-14T13:50:52;2.50;;;2.30;;
54959;SDS011;40860;51.710;8.736;2023-05-14T13:54:57;2.33;;;2.13;;
54959;SDS011;40860;51.710;8.736;2023-05-14T13:59:00;6.47;;;5.88;;
54959;SDS011;40860;51.710;8.736;2023-05-14T14:03:04;3.67;;;3.13;;
54959;SDS011;40860;51.710;8.736;2023-05-14T14:07:07;3.78;;;3.40;;
54959;SDS011;40860;51.710;8.736;2023-05-14T14:11:13;2.80;;;2.60;;
54959;SDS011;40860;51.710;8.736;2023-05-14T14:15:17;3.15;;;2.70;;
54959;SDS011;40860;51.710;8.736;2023-05-14T14:19:21;2.97;;;2.55;;
54959;SDS011;40860;51.710;8.736;2023-05-14T14:23:24;6.07;;;2.90;;
54959;SDS011;40860;51.710;8.736;2023-05-14T14:27:30;3.58;;;2.83;;
54959;SDS011;40860;51.710;8.736;2023-05-14T14:31:35;3.53;;;3.28;;
54959;SDS011;40860;51.710;8.736;2023-05-14T14:35:38;3.17;;;2.92;;
54959;SDS011;40860;51.710;8.736;2023-05-14T14:39:42;5.07;;;3.50;;
54959;SDS011;40860;51.710;8.736;2023-05-14T14:43:46;3.92;;;3.55;;
54959;SDS011;40860;51.710;8.736;2023-05-14T14:47:50;3.17;;;2.97;;
54959;SDS011;40860;51.710;8.736;2023-05-14T14:51:53;3.20;;;2.90;;
54959;SDS011;40860;51.710;8.736;2023-05-14T14:55:57;3.35;;;3.15;;
54959;SDS011;40860;51.710;8.736;2023-05-14T15:00:04;3.17;;;2.97;;
54959;SDS011;40860;51.710;8.736;2023-05-14T15:04:08;3.53;;;3.22;;
54959;SDS011;40860;51.710;8.736;2023-05-14T15:08:11;4.25;;;3.88;;
54959;SDS011;40860;51.710;8.736;2023-05-14T15:12:14;3.13;;;2.92;;
54959;SDS011;40860;51.710;8.736;2023-05-14T15:16:18;2.67;;;2.47;;
54959;SDS011;40860;51.710;8.736;2023-05-14T15:20:22;3.33;;;3.13;;
54959;SDS011;40860;51.710;8.736;2023-05-14T15:24:25;3.20;;;3.00;;
54959;SDS011;40860;51.710;8.736;2023-05-14T15:28:27;3.97;;;3.55;;
54959;SDS011;40860;51.710;8.736;2023-05-14T15:32:32;3.80;;;3.33;;
54959;SDS011;40860;51.710;8.736;2023-05-14T15:36:35;3.60;;;3.30;;
54959;SDS011;40860;51.710;8.736;2023-05-14T15:40:38;3.05;;;2.85;;
54959;SDS011;40860;51.710;8.736;2023-05-14T15:44:42;4.07;;;3.10;;
54959;SDS011;40860;51.710;8.736;2023-05-14T15:48:46;3.33;;;2.80;;
54959;SDS011;40860;51.710;8.736;2023-05-14T15:52:49;2.90;;;2.70;;
54959;SDS011;40860;51.710;8.736;2023-05-14T15:56:53;3.05;;;2.85;;
54959;SDS011;40860;51.710;8.736;2023-05-14T16:00:56;3.00;;;2.78;;
54959;SDS011;40860;51.710;8.736;2023-05-14T16:05:01;2.70;;;2.50;;
54959;SDS011;40860;51.710;8.736;2023-05-14T16:09:04;3.72;;;2.97;;
54959;SDS011;40860;51.710;8.736;2023-05-14T16:13:09;2.92;;;2.72;;
54959;SDS011;40860;51.710;8.736;2023-05-14T16:17:12;2.92;;;2.72;;
54959;SDS011;40860;51.710;8.736;2023-05-14T16:21:17;2.50;;;2.30;;
54959;SDS011;40860;51.710;8.736;2023-05-14T16:25:20;4.22;;;3.05;;
54959;SDS011;40860;51.710;8.736;2023-05-14T16:29:23;5.55;;;3.58;;
54959;SDS011;40860;51.710;8.736;2023-05-14T16:33:27;3.65;;;3.35;;
54959;SDS011;40860;51.710;8.736;2023-05-14T16:37:31;4.90;;;4.45;;
54959;SDS011;40860;51.710;8.736;2023-05-14T16:41:34;3.83;;;3.47;;
54959;SDS011;40860;51.710;8.736;2023-05-14T16:45:41;4.30;;;3.90;;
54959;SDS011;40860;51.710;8.736;2023-05-14T16:49:45;4.45;;;4.10;;
54959;SDS011;40860;51.710;8.736;2023-05-14T16:53:49;5.30;;;4.78;;
54959;SDS011;40860;51.710;8.736;2023-05-14T16:57:54;5.10;;;4.20;;
54959;SDS011;40860;51.710;8.736;2023-05-14T17:01:57;3.67;;;3.38;;
54959;SDS011;40860;51.710;8.736;2023-05-14T17:06:01;5.75;;;3.50;;
54959;SDS011;40860;51.710;8.736;2023-05-14T17:10:07;3.20;;;2.90;;
54959;SDS011;40860;51.710;8.736;2023-05-14T17:14:11;3.92;;;3.63;;
54959;SDS011;40860;51.710;8.736;2023-05-14T17:18:16;3.88;;;3.20;;
54959;SDS011;40860;51.710;8.736;2023-05-14T17:22:19;4.57;;;4.18;;
54959;SDS011;40860;51.710;8.736;2023-05-14T17:26:24;3.85;;;3.55;;
54959;SDS011;40860;51.710;8.736;2023-05-14T17:30:28;6.10;;;4.30;;
54959;SDS011;40860;51.710;8.736;2023-05-14T17:34:31;3.65;;;3.35;;
54959;SDS011;40860;51.710;8.736;2023-05-14T17:38:35;4.05;;;3.65;;
54959;SDS011;40860;51.710;8.736;2023-05-14T17:42:41;4.28;;;3.88;;
54959;SDS011;40860;51.710;8.736;2023-05-14T17:46:46;3.72;;;3.42;;
54959;SDS011;40860;51.710;8.736;2023-05-14T17:50:51;3.42;;;3.13;;
54959;SDS011;40860;51.710;8.736;2023-05-14T17:54:55;3.67;;;3.38;;
54959;SDS011;40860;51.710;8.736;2023-05-14T17:59:01;4.15;;;3.50;;
54959;SDS011;40860;51.710;8.736;2023-05-14T18:03:05;4.70;;;3.42;;
54959;SDS011;40860;51.710;8.736;2023-05-14T18:07:14;5.75;;;4.70;;
54959;SDS011;40860;51.710;8.736;2023-05-14T18:11:19;6.65;;;4.97;;
54959;SDS011;40860;51.710;8.736;2023-05-14T18:15:27;4.38;;;3.97;;
54959;SDS011;40860;51.710;8.736;2023-05-14T18:19:32;4.70;;;4.25;;
54959;SDS011;40860;51.710;8.736;2023-05-14T18:23:35;4.50;;;4.07;;
54959;SDS011;40860;51.710;8.736;2023-05-14T18:27:38;4.85;;;4.45;;
54959;SDS011;40860;51.710;8.736;2023-05-14T18:31:46;5.80;;;5.22;;
54959;SDS011;40860;51.710;8.736;2023-05-14T18:35:49;5.43;;;4.97;;
54959;SDS011;40860;51.710;8.736;2023-05-14T18:39:54;5.20;;;4.70;;
54959;SDS011;40860;51.710;8.736;2023-05-14T18:43:59;5.65;;;5.10;;
54959;SDS011;40860;51.710;8.736;2023-05-14T18:48:04;5.13;;;4.63;;
54959;SDS011;40860;51.710;8.736;2023-05-14T18:52:08;5.35;;;4.85;;
54959;SDS011;40860;51.710;8.736;2023-05-14T18:56:11;5.80;;;5.20;;
54959;SDS011;40860;51.710;8.736;2023-05-14T19:00:16;5.35;;;4.90;;
54959;SDS011;40860;51.710;8.736;2023-05-14T19:04:22;4.78;;;4.38;;
54959;SDS011;40860;51.710;8.736;2023-05-14T19:08:25;5.32;;;4.75;;
54959;SDS011;40860;51.710;8.736;2023-05-14T19:12:28;6.45;;;4.60;;
54959;SDS011;40860;51.710;8.736;2023-05-14T19:16:32;5.07;;;4.68;;
54959;SDS011;40860;51.710;8.736;2023-05-14T19:20:37;5.00;;;4.50;;
54959;SDS011;40860;51.710;8.736;2023-05-14T19:24:40;5.30;;;4.90;;
54959;SDS011;40860;51.710;8.736;2023-05-14T19:28:43;4.80;;;4.40;;
54959;SDS011;40860;51.710;8.736;2023-05-14T19:32:47;4.85;;;4.45;;
54959;SDS011;40860;51.710;8.736;2023-05-14T19:36:52;5.43;;;5.00;;
54959;SDS011;40860;51.710;8.736;2023-05-14T19:40:55;7.53;;;6.72;;
54959;SDS011;40860;51.710;8.736;2023-05-14T19:44:58;6.45;;;5.70;;
54959;SDS011;40860;51.710;8.736;2023-05-14T19:49:01;7.20;;;6.28;;
54959;SDS011;40860;51.710;8.736;2023-05-14T19:53:06;8.05;;;6.22;;
54959;SDS011;40860;51.710;8.736;2023-05-14T19:57:10;7.10;;;6.00;;
54959;SDS011;40860;51.710;8.736;2023-05-14T20:01:13;18.40;;;13.95;;
54959;SDS011;40860;51.710;8.736;2023-05-14T20:05:16;22.13;;;15.50;;
54959;SDS011;40860;51.710;8.736;2023-05-14T20:09:21;10.05;;;6.63;;
54959;SDS011;40860;51.710;8.736;2023-05-14T20:13:24;7.70;;;7.00;;
54959;SDS011;40860;51.710;8.736;2023-05-14T20:17:27;8.43;;;7.57;;
54959;SDS011;40860;51.710;8.736;2023-05-14T20:21:31;8.90;;;7.45;;
54959;SDS011;40860;51.710;8.736;2023-05-14T20:25:35;8.23;;;7.40;;
54959;SDS011;40860;51.710;8.736;2023-05-14T20:29:38;7.30;;;6.70;;
54959;SDS011;40860;51.710;8.736;2023-05-14T20:33:41;8.35;;;7.15;;
54959;SDS011;40860;51.710;8.736;2023-05-14T20:37:44;6.40;;;5.78;;
54959;SDS011;40860;51.710;8.736;2023-05-14T20:41:51;8.43;;;7.00;;
54959;SDS011;40860;51.710;8.736;2023-05-14T20:45:55;7.38;;;6.78;;
54959;SDS011;40860;51.710;8.736;2023-05-14T20:49:58;7.00;;;6.30;;
54959;SDS011;40860;51.710;8.736;2023-05-14T20:54:02;7.45;;;6.75;;
54959;SDS011;40860;51.710;8.736;2023-05-14T20:58:06;8.05;;;6.65;;
54959;SDS011;40860;51.710;8.736;2023-05-14T21:02:10;8.13;;;6.47;;
54959;SDS011;40860;51.710;8.736;2023-05-14T21:06:13;7.28;;;6.50;;
54959;SDS011;40860;51.710;8.736;2023-05-14T21:10:16;7.65;;;6.90;;
54959;SDS011;40860;51.710;8.736;2023-05-14T21:14:20;7.82;;;7.13;;
54959;SDS011;40860;51.710;8.736;2023-05-14T21:18:24;8.35;;;7.57;;
54959;SDS011;40860;51.710;8.736;2023-05-14T21:22:30;7.63;;;6.63;;
54959;SDS011;40860;51.710;8.736;2023-05-14T21:26:35;8.05;;;7.35;;
54959;SDS011;40860;51.710;8.736;2023-05-14T21:30:41;7.60;;;6.80;;
54959;SDS011;40860;51.710;8.736;2023-05-14T21:34:44;7.63;;;6.93;;
54959;SDS011;40860;51.710;8.736;2023-05-14T21:38:47;7.65;;;6.97;;
54959;SDS011;40860;51.710;8.736;2023-05-14T21:42:50;7.65;;;6.95;;
54959;SDS011;40860;51.710;8.736;2023-05-14T21:46:58;8.15;;;7.30;;
54959;SDS011;40860;51.710;8.736;2023-05-14T21:51:05;8.13;;;7.40;;
54959;SDS011;40860;51.710;8.736;2023-05-14T21:55:13;8.57;;;6.80;;
54959;SDS011;40860;51.710;8.736;2023-05-14T21:59:25;7.93;;;7.18;;
54959;SDS011;40860;51.710;8.736;2023-05-14T22:03:30;8.73;;;7.25;;
54959;SDS011;40860;51.710;8.736;2023-05-14T22:07:33;8.82;;;7.35;;
54959;SDS011;40860;51.710;8.736;2023-05-14T22:11:37;7.53;;;6.72;;
54959;SDS011;40860;51.710;8.736;2023-05-14T22:15:43;7.75;;;7.03;;
54959;SDS011;40860;51.710;8.736;2023-05-14T22:19:51;8.18;;;7.38;;
54959;SDS011;40860;51.710;8.736;2023-05-14T22:23:57;8.35;;;7.55;;
54959;SDS011;40860;51.710;8.736;2023-05-14T22:28:00;8.75;;;7.43;;
54959;SDS011;40860;51.710;8.736;2023-05-14T22:32:05;8.45;;;7.60;;
54959;SDS011;40860;51.710;8.736;2023-05-14T22:36:12;7.72;;;7.00;;
54959;SDS011;40860;51.710;8.736;2023-05-14T22:40:15;8.20;;;7.40;;
54959;SDS011;40860;51.710;8.736;2023-05-14T22:44:18;9.07;;;8.05;;
54959;SDS011;40860;51.710;8.736;2023-05-14T22:48:21;8.27;;;7.47;;
54959;SDS011;40860;51.710;8.736;2023-05-14T22:52:26;8.35;;;7.60;;
54959;SDS011;40860;51.710;8.736;2023-05-14T22:56:29;9.25;;;7.75;;
54959;SDS011;40860;51.710;8.736;2023-05-14T23:00:32;8.45;;;7.75;;
54959;SDS011;40860;51.710;8.736;2023-05-14T23:04:36;8.63;;;7.82;;
54959;SDS011;40860;51.710;8.736;2023-05-14T23:08:41;8.77;;;8.02;;
54959;SDS011;40860;51.710;8.736;2023-05-14T23:12:44;8.77;;;8.00;;
54959;SDS011;40860;51.710;8.736;2023-05-14T23:16:48;8.60;;;7.47;;
54959;SDS011;40860;51.710;8.736;2023-05-14T23:20:51;9.38;;;8.48;;
54959;SDS011;40860;51.710;8.736;2023-05-14T23:24:56;8.00;;;7.15;;
54959;SDS011;40860;51.710;8.736;2023-05-14T23:28:59;9.65;;;7.70;;
54959;SDS011;40860;51.710;8.736;2023-05-14T23:33:02;8.32;;;7.57;;
54959;SDS011;40860;51.710;8.736;2023-05-14T23:37:05;7.90;;;7.15;;
54959;SDS011;40860;51.710;8.736;2023-05-14T23:41:10;8.70;;;7.63;;
54959;SDS011;40860;51.710;8.736;2023-05-14T23:45:13;8.05;;;7.32;;
54959;SDS011;40860;51.710;8.736;2023-05-14T23:49:16;7.70;;;7.00;;
54959;SDS011;40860;51.710;8.736;2023-05-14T23:53:20;9.82;;;7.38;;
54959;SDS011;40860;51.710;8.736;2023-05-14T23:57:24;8.95;;;7.65;;
